createdAt,value
2022-10-14T00:02:14.077Z,18.90
2022-10-14T00:05:16.230Z,18.90
2022-10-14T00:08:18.241Z,18.90
2022-10-14T00:11:26.402Z,18.90
2022-10-14T00:14:28.528Z,18.80
2022-10-14T00:17:30.608Z,18.80
2022-10-14T00:20:33.110Z,18.80
2022-10-14T00:23:35.844Z,18.80
2022-10-14T00:26:40.009Z,18.90
2022-10-14T00:29:42.157Z,18.90
2022-10-14T00:32:44.427Z,18.90
2022-10-14T00:36:01.122Z,18.90
2022-10-14T00:39:03.526Z,18.90
2022-10-14T00:42:05.663Z,19.00
2022-10-14T00:45:19.911Z,19.00
2022-10-14T00:48:24.839Z,19.00
2022-10-14T00:51:27.623Z,19.00
2022-10-14T00:54:35.274Z,18.90
2022-10-14T00:57:39.068Z,19.00
2022-10-14T01:00:44.375Z,18.90
2022-10-14T01:03:46.522Z,18.90
2022-10-14T01:07:03.327Z,18.90
2022-10-14T01:10:31.343Z,18.90
2022-10-14T01:13:48.055Z,18.90
2022-10-14T01:17:00.880Z,18.90
2022-10-14T01:20:44.425Z,18.90
2022-10-14T01:24:11.070Z,18.90
2022-10-14T01:27:25.033Z,18.90
2022-10-14T01:30:33.700Z,18.90
2022-10-14T01:33:42.931Z,18.90
2022-10-14T01:36:59.477Z,18.90
2022-10-14T01:40:08.661Z,18.90
2022-10-14T01:43:13.527Z,18.90
2022-10-14T01:46:18.422Z,18.90
2022-10-14T01:49:44.222Z,18.90
2022-10-14T01:53:08.504Z,18.90
2022-10-14T01:56:12.622Z,19.00
2022-10-14T01:59:17.403Z,18.90
2022-10-14T02:02:20.011Z,18.90
2022-10-14T02:05:33.750Z,18.90
2022-10-14T02:08:52.954Z,19.00
2022-10-14T02:12:06.976Z,18.90
2022-10-14T02:15:27.725Z,18.80
2022-10-14T02:19:09.149Z,18.80
2022-10-14T02:22:30.328Z,18.80
2022-10-14T02:25:36.066Z,18.90
2022-10-14T02:28:39.959Z,18.90
2022-10-14T02:31:44.255Z,18.90
2022-10-14T02:34:51.454Z,18.90
2022-10-14T02:37:55.838Z,18.90
2022-10-14T02:40:59.483Z,19.00
2022-10-14T02:44:01.990Z,18.90
2022-10-14T02:47:04.341Z,19.00
2022-10-14T02:50:09.636Z,18.90
2022-10-14T02:53:16.204Z,19.00
2022-10-14T02:56:19.384Z,19.00
2022-10-14T02:59:21.719Z,18.90
2022-10-14T03:02:24.045Z,18.90
2022-10-14T03:05:26.659Z,18.90
2022-10-14T03:08:29.070Z,18.90
2022-10-14T03:11:31.112Z,19.00
2022-10-14T03:14:33.209Z,19.00
2022-10-14T03:17:37.291Z,18.90
2022-10-14T03:20:39.314Z,18.90
2022-10-14T03:23:41.453Z,18.90
2022-10-14T03:26:45.114Z,18.90
2022-10-14T03:29:47.249Z,18.90
2022-10-14T03:32:49.538Z,18.90
2022-10-14T03:35:51.577Z,18.90
2022-10-14T03:38:55.266Z,18.90
2022-10-14T03:41:57.276Z,18.90
2022-10-14T03:45:00.851Z,18.90
2022-10-14T03:48:02.976Z,18.90
2022-10-14T03:51:10.574Z,18.90
2022-10-14T03:54:12.670Z,18.90
2022-10-14T03:57:14.761Z,18.90
2022-10-14T04:00:17.089Z,18.90
2022-10-14T04:03:19.111Z,18.90
2022-10-14T04:06:21.182Z,18.90
2022-10-14T04:09:23.363Z,18.90
2022-10-14T04:12:25.727Z,18.90
2022-10-14T04:15:38.434Z,18.90
2022-10-14T04:18:54.071Z,18.90
2022-10-14T04:21:56.494Z,18.90
2022-10-14T04:25:00.768Z,18.90
2022-10-14T04:28:02.925Z,18.90
2022-10-14T04:31:06.450Z,18.90
2022-10-14T04:34:09.580Z,18.90
2022-10-14T04:37:11.732Z,18.90
2022-10-14T04:40:14.007Z,18.90
2022-10-14T04:43:16.297Z,18.90
2022-10-14T04:46:20.330Z,18.90
2022-10-14T04:49:22.526Z,18.90
2022-10-14T04:52:24.870Z,18.90
2022-10-14T04:55:27.086Z,18.90
2022-10-14T04:58:29.103Z,18.90
2022-10-14T05:01:33.910Z,18.90
2022-10-14T05:04:36.304Z,18.80
2022-10-14T05:07:38.555Z,18.80
2022-10-14T05:10:40.550Z,18.80
2022-10-14T05:13:43.459Z,18.80
2022-10-14T05:16:45.472Z,18.80
2022-10-14T05:19:47.638Z,18.80
2022-10-14T05:22:49.817Z,18.80
2022-10-14T05:25:54.571Z,18.80
2022-10-14T05:28:56.628Z,18.80
2022-10-14T05:32:00.601Z,18.80
2022-10-14T05:35:03.101Z,18.80
2022-10-14T05:38:06.064Z,18.70
2022-10-14T05:41:08.094Z,18.70
2022-10-14T05:44:11.690Z,18.70
2022-10-14T05:47:13.737Z,18.70
2022-10-14T05:50:16.037Z,18.70
2022-10-14T05:53:18.074Z,18.60
2022-10-14T05:56:20.222Z,18.60
2022-10-14T05:59:23.388Z,18.70
2022-10-14T06:02:27.162Z,18.60
2022-10-14T06:05:29.148Z,18.60
2022-10-14T06:08:31.162Z,18.60
2022-10-14T06:11:33.451Z,18.60
2022-10-14T06:14:38.719Z,18.60
2022-10-14T06:17:41.289Z,18.60
2022-10-14T06:20:44.631Z,18.60
2022-10-14T06:23:46.887Z,18.60
2022-10-14T06:26:49.461Z,18.60
2022-10-14T06:29:52.001Z,18.60
2022-10-14T06:32:54.472Z,18.50
2022-10-14T06:35:57.066Z,18.50
2022-10-14T06:38:59.478Z,18.50
2022-10-14T06:42:03.140Z,18.50
2022-10-14T06:45:06.866Z,18.50
2022-10-14T06:48:15.407Z,18.50
2022-10-14T06:51:18.083Z,18.50
2022-10-14T06:54:20.227Z,18.50
2022-10-14T06:57:22.315Z,18.50
2022-10-14T07:00:24.553Z,18.50
2022-10-14T07:03:26.662Z,18.70
2022-10-14T07:06:33.781Z,19.00
2022-10-14T07:09:35.916Z,19.60
2022-10-14T07:12:37.987Z,20.30
2022-10-14T07:15:41.229Z,21.00
2022-10-14T07:18:43.957Z,21.50
2022-10-14T07:21:46.974Z,22.20
2022-10-14T07:24:49.046Z,22.60
2022-10-14T07:27:53.541Z,23.10
2022-10-14T07:31:04.186Z,23.70
2022-10-14T07:34:06.539Z,24.50
2022-10-14T07:37:08.647Z,25.30
2022-10-14T07:40:12.051Z,26.10
2022-10-14T07:43:14.895Z,27.10
2022-10-14T07:46:28.518Z,28.00
2022-10-14T07:49:30.542Z,28.50
2022-10-14T07:52:32.700Z,29.30
2022-10-14T07:55:34.747Z,30.10
2022-10-14T07:58:39.901Z,30.40
2022-10-14T08:01:49.979Z,31.00
2022-10-14T08:05:18.964Z,31.50
2022-10-14T08:08:23.508Z,32.00
2022-10-14T08:11:27.733Z,32.60
2022-10-14T08:14:29.785Z,33.00
2022-10-14T08:17:31.849Z,33.10
2022-10-14T08:20:34.707Z,33.50
2022-10-14T08:23:36.822Z,33.80
2022-10-14T08:26:41.515Z,33.80
2022-10-14T08:29:43.654Z,34.20
2022-10-14T08:32:45.728Z,34.10
2022-10-14T08:35:53.010Z,34.30
2022-10-14T08:38:56.428Z,34.80
2022-10-14T08:42:05.822Z,35.30
2022-10-14T08:45:17.882Z,35.60
2022-10-14T08:48:24.292Z,35.90
2022-10-14T08:51:30.759Z,36.30
2022-10-14T08:54:36.682Z,36.80
2022-10-14T08:57:48.257Z,37.00
2022-10-14T09:00:52.676Z,36.70
2022-10-14T09:04:12.363Z,37.00
2022-10-14T09:07:18.198Z,36.50
2022-10-14T09:10:30.701Z,37.40
2022-10-14T09:13:37.168Z,37.60
2022-10-14T09:16:40.835Z,36.40
2022-10-14T09:20:00.592Z,37.30
2022-10-14T09:23:08.466Z,36.90
2022-10-14T09:26:19.511Z,38.00
2022-10-14T09:29:40.838Z,38.70
2022-10-14T09:32:49.689Z,39.30
2022-10-14T09:35:52.201Z,39.30
2022-10-14T09:38:56.319Z,38.60
2022-10-14T09:41:59.803Z,39.30
2022-10-14T09:45:12.925Z,39.00
2022-10-14T09:48:19.191Z,38.60
2022-10-14T09:51:31.196Z,38.40
2022-10-14T09:54:34.559Z,38.80
2022-10-14T09:57:36.760Z,38.90
2022-10-14T10:00:39.079Z,38.80
2022-10-14T10:03:41.363Z,38.60
2022-10-14T10:06:54.086Z,39.00
2022-10-14T10:09:58.686Z,39.40
2022-10-14T10:13:01.683Z,39.50
2022-10-14T10:16:06.037Z,39.80
2022-10-14T10:19:30.344Z,40.10
2022-10-14T10:22:36.783Z,39.80
2022-10-14T10:25:38.827Z,39.60
2022-10-14T10:28:46.623Z,39.20
2022-10-14T10:32:20.779Z,39.60
2022-10-14T10:35:35.128Z,40.00
2022-10-14T10:38:49.747Z,39.70
2022-10-14T10:42:12.999Z,40.00
2022-10-14T10:45:36.450Z,39.60
2022-10-14T10:48:55.283Z,38.90
2022-10-14T10:52:21.827Z,39.40
2022-10-14T10:55:58.015Z,39.50
2022-10-14T10:59:41.528Z,40.00
2022-10-14T11:02:49.441Z,39.40
2022-10-14T11:06:40.874Z,38.80
2022-10-14T11:10:42.573Z,38.70
2022-10-14T11:14:05.930Z,37.80
2022-10-14T11:18:06.987Z,37.60
2022-10-14T11:21:44.633Z,36.80
2022-10-14T11:24:58.991Z,36.50
2022-10-14T11:28:16.332Z,36.20
2022-10-14T11:31:31.964Z,36.30
2022-10-14T11:35:06.203Z,35.40
2022-10-14T11:38:27.445Z,34.10
2022-10-14T11:41:50.515Z,32.70
2022-10-14T11:45:20.457Z,31.70
2022-10-14T11:48:40.212Z,30.90
2022-10-14T11:52:04.228Z,30.50
2022-10-14T11:55:14.478Z,30.00
2022-10-14T11:58:23.027Z,29.60
2022-10-14T12:01:34.252Z,29.20
2022-10-14T12:04:44.953Z,28.70
2022-10-14T12:08:21.395Z,28.50
2022-10-14T12:11:34.414Z,28.20
2022-10-14T12:14:46.271Z,28.00
2022-10-14T12:17:59.939Z,27.90
2022-10-14T12:21:50.606Z,27.70
2022-10-14T12:24:55.589Z,27.50
2022-10-14T12:27:58.453Z,27.50
2022-10-14T12:31:26.041Z,27.40
2022-10-14T12:34:40.945Z,27.40
2022-10-14T12:37:51.065Z,27.30
2022-10-14T12:40:53.729Z,27.30
2022-10-14T12:44:24.059Z,27.30
2022-10-14T12:47:35.281Z,27.20
2022-10-14T12:50:42.343Z,27.20
2022-10-14T12:54:05.018Z,27.20
2022-10-14T12:57:37.398Z,27.00
2022-10-14T13:00:43.657Z,27.00
2022-10-14T13:07:47.551Z,27.10
2022-10-14T13:11:13.630Z,27.10
2022-10-14T13:14:23.215Z,27.20
2022-10-14T13:17:45.528Z,27.20
2022-10-14T13:20:51.869Z,27.10
2022-10-14T13:23:55.354Z,27.20
2022-10-14T13:27:07.201Z,27.10
2022-10-14T13:30:35.382Z,27.20
2022-10-14T13:33:47.083Z,27.20
2022-10-14T13:37:20.676Z,27.20
2022-10-14T13:40:35.330Z,27.30
2022-10-14T13:43:44.204Z,27.40
2022-10-14T13:46:48.378Z,27.40
2022-10-14T13:49:51.487Z,27.50
2022-10-14T13:53:15.562Z,27.50
2022-10-14T13:56:27.257Z,27.50
2022-10-14T13:59:43.419Z,27.60
2022-10-14T14:02:50.193Z,27.60
2022-10-14T14:05:57.141Z,27.70
2022-10-14T14:09:05.521Z,27.60
2022-10-14T14:12:07.955Z,27.60
2022-10-14T14:15:21.603Z,27.70
2022-10-14T14:18:49.227Z,27.80
2022-10-14T14:22:24.379Z,27.80
2022-10-14T14:25:34.433Z,27.90
2022-10-14T14:28:37.633Z,27.90
2022-10-14T14:32:06.594Z,27.90
2022-10-14T14:35:11.820Z,28.00
2022-10-14T14:38:34.767Z,28.00
2022-10-14T14:41:36.916Z,28.00
2022-10-14T14:44:40.182Z,28.00
2022-10-14T14:47:42.777Z,28.00
2022-10-14T14:50:45.763Z,28.10
2022-10-14T14:53:52.892Z,28.10
2022-10-14T14:57:03.069Z,28.10
2022-10-14T15:00:07.860Z,28.10
2022-10-14T15:03:09.903Z,28.20
2022-10-14T15:06:16.909Z,28.20
2022-10-14T15:09:43.847Z,28.10
2022-10-14T15:12:57.181Z,28.00
2022-10-14T15:15:59.870Z,28.00
2022-10-14T15:19:23.197Z,27.70
2022-10-14T15:22:32.558Z,27.80
2022-10-14T15:25:34.812Z,27.80
2022-10-14T15:28:37.040Z,27.90
2022-10-14T15:31:40.752Z,27.90
2022-10-14T15:34:42.790Z,28.00
2022-10-14T15:37:45.081Z,28.00
2022-10-14T15:40:48.501Z,28.00
2022-10-14T15:43:50.612Z,27.90
2022-10-14T15:47:11.014Z,27.80
2022-10-14T15:50:22.511Z,27.70
2022-10-14T15:53:25.725Z,27.60
2022-10-14T15:56:29.818Z,27.50
2022-10-14T15:59:32.926Z,27.40
2022-10-14T16:02:35.931Z,27.30
2022-10-14T16:05:40.896Z,27.20
2022-10-14T16:08:44.203Z,27.10
2022-10-14T16:11:48.156Z,27.10
2022-10-14T16:14:50.495Z,27.00
2022-10-14T16:17:56.687Z,26.90
2022-10-14T16:20:59.694Z,26.90
2022-10-14T16:24:02.424Z,26.80
2022-10-14T16:27:04.517Z,26.70
2022-10-14T16:30:07.365Z,26.70
2022-10-14T16:36:14.359Z,26.60
2022-10-14T16:39:19.582Z,26.50
2022-10-14T16:42:21.681Z,26.50
2022-10-14T16:45:23.682Z,26.40
2022-10-14T16:48:26.935Z,26.30
2022-10-14T16:51:31.586Z,26.20
2022-10-14T16:54:33.757Z,26.10
2022-10-14T16:57:35.795Z,26.00
2022-10-14T17:00:38.072Z,25.90
2022-10-14T17:03:40.038Z,25.70
2022-10-14T17:06:43.070Z,25.60
2022-10-14T17:09:46.260Z,25.40
2022-10-14T17:12:48.398Z,25.30
2022-10-14T17:15:51.604Z,25.30
2022-10-14T17:18:53.781Z,25.20
2022-10-14T17:21:56.589Z,25.10
2022-10-14T17:24:58.790Z,25.00
2022-10-14T17:31:08.724Z,24.80
2022-10-14T17:34:10.797Z,24.80
2022-10-14T17:37:12.821Z,24.60
2022-10-14T17:40:14.922Z,24.60
2022-10-14T17:43:17.078Z,24.50
2022-10-14T17:46:21.467Z,24.30
2022-10-14T17:49:23.518Z,24.30
2022-10-14T17:52:25.611Z,24.20
2022-10-14T17:55:27.940Z,24.20
2022-10-14T17:58:30.574Z,24.10
2022-10-14T18:05:04.193Z,23.90
2022-10-14T18:08:06.825Z,23.80
2022-10-14T18:11:11.017Z,23.70
2022-10-14T18:14:14.408Z,23.70
2022-10-14T18:17:16.661Z,23.50
2022-10-14T18:20:18.787Z,23.50
2022-10-14T18:23:20.856Z,23.40
2022-10-14T18:26:23.307Z,23.30
2022-10-14T18:29:25.476Z,23.20
2022-10-14T18:32:27.768Z,23.10
2022-10-14T18:35:29.794Z,23.00
2022-10-14T18:38:32.286Z,23.00
2022-10-14T18:41:37.025Z,22.90
2022-10-14T18:44:39.033Z,22.90
2022-10-14T18:47:41.084Z,22.80
2022-10-14T18:50:43.118Z,22.80
2022-10-14T18:53:47.820Z,22.70
2022-10-14T18:56:49.827Z,22.70
2022-10-14T18:59:51.902Z,22.60
2022-10-14T19:02:53.912Z,22.60
2022-10-14T19:05:58.288Z,22.50
2022-10-14T19:09:04.074Z,22.50
2022-10-14T19:12:27.094Z,22.40
2022-10-14T19:15:34.046Z,22.30
2022-10-14T19:18:36.270Z,22.30
2022-10-14T19:21:39.375Z,22.20
2022-10-14T19:24:41.401Z,22.20
2022-10-14T19:27:44.122Z,22.20
2022-10-14T19:30:46.302Z,22.10
2022-10-14T19:33:48.838Z,22.00
2022-10-14T19:36:51.173Z,22.00
2022-10-14T19:39:53.377Z,21.90
2022-10-14T19:42:57.116Z,21.90
2022-10-14T19:46:00.276Z,21.80
2022-10-14T19:49:04.934Z,21.80
2022-10-14T19:52:08.028Z,21.60
2022-10-14T19:55:10.172Z,21.50
2022-10-14T19:58:12.240Z,21.50
2022-10-14T20:01:16.899Z,21.50
2022-10-14T20:04:22.732Z,21.40
2022-10-14T20:07:27.229Z,21.40
2022-10-14T20:10:29.372Z,21.40
2022-10-14T20:13:31.965Z,21.40
2022-10-14T20:16:34.336Z,21.30
2022-10-14T20:19:37.875Z,21.30
2022-10-14T20:22:39.965Z,21.30
2022-10-14T20:25:42.537Z,21.30
2022-10-14T20:28:44.782Z,21.30
2022-10-14T20:31:46.878Z,21.20
2022-10-14T20:34:49.095Z,21.20
2022-10-14T20:37:51.262Z,21.10
2022-10-14T20:40:53.279Z,21.10
2022-10-14T20:43:56.253Z,21.00
2022-10-14T20:46:58.576Z,21.10
2022-10-14T20:50:01.789Z,21.00
2022-10-14T20:53:05.472Z,21.00
2022-10-14T20:56:10.176Z,21.00
2022-10-14T20:59:13.891Z,21.00
2022-10-14T21:02:20.995Z,20.90
2022-10-14T21:05:23.128Z,20.80
2022-10-14T21:08:25.255Z,20.80
2022-10-14T21:11:28.188Z,20.90
2022-10-14T21:14:30.782Z,20.80
2022-10-14T21:17:33.031Z,20.90
2022-10-14T21:20:35.440Z,20.90
2022-10-14T21:23:37.578Z,20.80
2022-10-14T21:26:39.907Z,20.70
2022-10-14T21:29:41.959Z,20.70
2022-10-14T21:32:44.131Z,20.70
2022-10-14T21:35:46.492Z,20.60
2022-10-14T21:38:48.581Z,20.60
2022-10-14T21:41:51.006Z,20.50
2022-10-14T21:44:53.450Z,20.40
2022-10-14T21:47:55.576Z,20.40
2022-10-14T21:51:17.319Z,20.40
2022-10-14T21:54:19.472Z,20.50
2022-10-14T21:57:22.007Z,20.40
2022-10-14T22:00:24.206Z,20.40
2022-10-14T22:03:26.346Z,20.40
2022-10-14T22:06:28.923Z,20.40
2022-10-14T22:09:31.700Z,20.40
2022-10-14T22:12:34.838Z,20.30
2022-10-14T22:15:43.576Z,20.30
2022-10-14T22:18:48.317Z,20.40
2022-10-14T22:21:52.767Z,20.40
2022-10-14T22:24:55.003Z,20.40
2022-10-14T22:27:57.107Z,20.40
2022-10-14T22:31:09.056Z,20.40
2022-10-14T22:34:19.757Z,20.40
2022-10-14T22:37:22.591Z,20.30
2022-10-14T22:40:24.986Z,20.30
2022-10-14T22:43:27.254Z,20.30
2022-10-14T22:46:31.503Z,20.20
2022-10-14T22:49:33.583Z,20.20
2022-10-14T22:52:35.589Z,20.20
2022-10-14T22:55:37.882Z,20.20
2022-10-14T22:58:40.061Z,20.10
2022-10-14T23:01:43.122Z,20.10
2022-10-14T23:04:45.685Z,20.10
2022-10-14T23:07:47.937Z,20.10
2022-10-14T23:10:50.007Z,20.00
2022-10-14T23:13:52.855Z,20.00
2022-10-14T23:16:54.871Z,20.00
2022-10-14T23:19:56.933Z,20.00
2022-10-14T23:22:58.986Z,20.00
2022-10-14T23:26:01.015Z,20.00
2022-10-14T23:29:07.340Z,19.90
2022-10-14T23:32:09.476Z,19.90
2022-10-14T23:35:11.662Z,19.80
2022-10-14T23:38:13.853Z,19.80
2022-10-14T23:41:16.640Z,19.70
2022-10-14T23:44:19.643Z,19.80
2022-10-14T23:47:21.972Z,19.80
2022-10-14T23:50:24.421Z,19.80
2022-10-14T23:53:26.930Z,19.80
2022-10-14T23:56:29.023Z,19.80
2022-10-14T23:59:31.142Z,19.90
